createdAt,value
2019-06-10T00:00:21.837Z,67.90
2019-06-10T00:02:51.730Z,67.52
2019-06-10T00:05:22.333Z,67.30
2019-06-10T00:07:52.815Z,67.17
2019-06-10T00:10:23.376Z,67.24
2019-06-10T00:12:55.386Z,67.53
2019-06-10T00:15:25.913Z,67.55
2019-06-10T00:18:20.890Z,66.91
2019-06-10T00:20:30.595Z,67.21
2019-06-10T00:23:02.516Z,67.35
2019-06-10T00:25:32.894Z,66.66
2019-06-10T00:28:05.642Z,66.14
2019-06-10T00:30:35.735Z,66.61
2019-06-10T00:33:07.694Z,66.40
2019-06-10T00:35:40.932Z,66.82
2019-06-10T00:38:13.953Z,67.12
2019-06-10T00:40:42.885Z,67.18
2019-06-10T00:43:13.712Z,66.61
2019-06-10T00:45:44.172Z,66.67
2019-06-10T00:48:24.997Z,66.95
2019-06-10T00:50:46.892Z,66.99
2019-06-10T00:53:17.391Z,67.54
2019-06-10T00:55:47.879Z,66.23
2019-06-10T00:58:18.344Z,66.42
2019-06-10T01:00:51.448Z,66.62
2019-06-10T01:03:21.081Z,66.46
2019-06-10T01:05:51.653Z,66.90
2019-06-10T01:08:22.136Z,66.94
2019-06-10T01:10:52.656Z,67.64
2019-06-10T01:13:23.149Z,67.03
2019-06-10T01:15:53.732Z,66.80
2019-06-10T01:18:34.429Z,66.61
2019-06-10T01:20:56.373Z,66.61
2019-06-10T01:23:26.816Z,65.83
2019-06-10T01:25:57.315Z,65.44
2019-06-10T01:28:27.773Z,65.39
2019-06-10T01:30:58.279Z,65.46
2019-06-10T01:33:28.799Z,65.50
2019-06-10T01:36:00.742Z,65.86
2019-06-10T01:38:31.753Z,65.89
2019-06-10T01:41:02.247Z,65.58
2019-06-10T01:43:32.839Z,65.63
2019-06-10T01:46:03.289Z,66.50
2019-06-10T01:48:43.964Z,66.56
2019-06-10T01:51:07.135Z,66.11
2019-06-10T01:53:37.644Z,65.37
2019-06-10T01:56:08.232Z,64.97
2019-06-10T01:58:40.665Z,64.58
2019-06-10T02:01:32.797Z,64.83
2019-06-10T02:04:03.245Z,65.00
2019-06-10T02:06:33.731Z,64.17
2019-06-10T02:09:05.920Z,63.99
2019-06-10T02:11:37.056Z,63.74
2019-06-10T02:14:07.943Z,63.98
2019-06-10T02:16:38.493Z,63.90
2019-06-10T02:19:11.465Z,63.42
2019-06-10T02:21:41.683Z,63.48
2019-06-10T02:24:14.358Z,63.01
2019-06-10T02:26:44.554Z,62.95
2019-06-10T02:29:16.133Z,62.95
2019-06-10T02:31:47.322Z,62.85
2019-06-10T02:34:22.982Z,62.81
2019-06-10T02:36:53.438Z,63.68
2019-06-10T02:39:30.619Z,63.48
2019-06-10T02:41:57.385Z,63.79
2019-06-10T02:44:33.239Z,63.53
2019-06-10T02:47:03.141Z,63.24
2019-06-10T02:49:51.514Z,63.48
2019-06-10T02:52:20.135Z,63.23
2019-06-10T02:54:53.359Z,63.48
2019-06-10T02:57:29.696Z,63.60
2019-06-10T02:59:54.754Z,63.76
2019-06-10T03:02:31.223Z,64.12
2019-06-10T03:04:57.405Z,63.75
2019-06-10T03:07:31.135Z,63.56
2019-06-10T03:10:00.052Z,63.33
2019-06-10T03:12:32.934Z,62.60
2019-06-10T03:15:02.723Z,62.46
2019-06-10T03:17:33.175Z,62.65
2019-06-10T03:20:03.756Z,61.94
2019-06-10T03:22:34.214Z,61.99
2019-06-10T03:25:05.160Z,61.46
2019-06-10T03:27:35.651Z,61.33
2019-06-10T03:30:15.817Z,61.43
2019-06-10T03:32:42.696Z,60.75
2019-06-10T03:35:13.257Z,60.81
2019-06-10T03:37:43.516Z,61.17
2019-06-10T03:40:14.099Z,61.02
2019-06-10T03:42:44.595Z,61.04
2019-06-10T03:45:15.560Z,61.07
2019-06-10T03:47:46.041Z,60.88
2019-06-10T03:50:17.219Z,60.72
2019-06-10T03:52:47.759Z,60.45
2019-06-10T03:55:19.298Z,59.76
2019-06-10T03:57:49.868Z,59.34
2019-06-10T04:00:21.947Z,59.34
2019-06-10T04:02:53.218Z,59.82
2019-06-10T04:05:25.405Z,59.70
2019-06-10T04:07:56.040Z,59.22
2019-06-10T04:10:29.168Z,59.25
2019-06-10T04:12:58.804Z,59.21
2019-06-10T04:15:29.614Z,58.39
2019-06-10T04:18:03.983Z,58.06
2019-06-10T04:20:33.825Z,57.86
2019-06-10T04:23:04.304Z,58.25
2019-06-10T04:25:36.224Z,58.80
2019-06-10T04:28:06.782Z,58.33
2019-06-10T04:30:37.311Z,58.55
2019-06-10T04:33:07.772Z,58.19
2019-06-10T04:35:38.264Z,58.18
2019-06-10T04:38:09.152Z,58.31
2019-06-10T04:40:39.603Z,57.89
2019-06-10T04:43:12.299Z,57.02
2019-06-10T04:45:43.037Z,57.10
2019-06-10T04:48:13.502Z,56.71
2019-06-10T04:50:46.438Z,56.99
2019-06-10T04:53:16.226Z,57.41
2019-06-10T04:55:46.682Z,57.67
2019-06-10T04:58:17.179Z,56.86
2019-06-10T05:00:52.376Z,56.67
2019-06-10T05:03:23.845Z,56.67
2019-06-10T05:05:54.765Z,56.37
2019-06-10T05:08:26.900Z,56.16
2019-06-10T05:10:57.464Z,56.30
2019-06-10T05:13:28.365Z,55.42
2019-06-10T05:16:00.335Z,54.70
2019-06-10T05:18:33.000Z,55.16
2019-06-10T05:21:03.256Z,55.61
2019-06-10T05:23:33.729Z,55.86
2019-06-10T05:26:04.420Z,56.17
2019-06-10T05:28:47.022Z,56.20
2019-06-10T05:31:17.764Z,55.95
2019-06-10T05:33:48.277Z,55.28
2019-06-10T05:36:20.612Z,55.26
2019-06-10T05:38:52.559Z,55.10
2019-06-10T05:41:24.898Z,54.74
2019-06-10T05:43:55.484Z,54.40
2019-06-10T05:46:27.296Z,53.60
2019-06-10T05:48:58.251Z,54.01
2019-06-10T05:51:30.663Z,53.87
2019-06-10T05:54:02.449Z,54.41
2019-06-10T05:56:35.705Z,54.89
2019-06-10T05:59:06.652Z,54.95
2019-06-10T06:01:38.704Z,54.45
2019-06-10T06:04:09.268Z,54.61
2019-06-10T06:06:41.781Z,54.49
2019-06-10T06:09:12.922Z,54.60
2019-06-10T06:11:52.454Z,54.87
2019-06-10T06:14:23.184Z,55.06
2019-06-10T06:16:53.669Z,55.60
2019-06-10T06:19:24.207Z,55.63
2019-06-10T06:21:54.854Z,55.40
2019-06-10T06:24:25.592Z,55.26
2019-06-10T06:26:56.181Z,55.01
2019-06-10T06:29:26.906Z,55.03
2019-06-10T06:31:57.575Z,54.90
2019-06-10T06:34:28.432Z,54.77
2019-06-10T06:36:58.938Z,54.25
2019-06-10T06:39:29.444Z,53.58
2019-06-10T06:42:02.228Z,53.29
2019-06-10T06:44:33.538Z,52.57
2019-06-10T06:47:04.566Z,52.29
2019-06-10T06:49:36.716Z,52.55
2019-06-10T06:52:07.657Z,50.37
2019-06-10T06:54:39.432Z,51.00
2019-06-10T06:57:10.103Z,50.46
2019-06-10T06:59:43.053Z,49.12
2019-06-10T07:02:12.828Z,47.52
2019-06-10T07:04:43.707Z,47.68
2019-06-10T07:07:15.832Z,48.13
2019-06-10T07:09:48.713Z,46.31
2019-06-10T07:12:23.025Z,46.16
2019-06-10T07:14:54.222Z,46.45
2019-06-10T07:17:32.005Z,45.63
2019-06-10T07:20:03.250Z,45.40
2019-06-10T07:22:36.476Z,46.90
2019-06-10T07:25:06.849Z,48.00
2019-06-10T07:27:39.051Z,48.34
2019-06-10T07:30:12.526Z,48.36
2019-06-10T07:32:46.847Z,49.01
2019-06-10T07:35:14.392Z,47.39
2019-06-10T07:37:46.091Z,47.01
2019-06-10T07:40:16.897Z,46.56
2019-06-10T07:42:47.404Z,45.96
2019-06-10T07:45:18.138Z,45.98
2019-06-10T07:47:48.618Z,46.99
2019-06-10T07:50:19.399Z,46.88
2019-06-10T07:52:49.950Z,46.55
2019-06-10T07:55:22.208Z,46.71
2019-06-10T07:57:53.174Z,46.85
2019-06-10T08:00:24.075Z,45.96
2019-06-10T08:02:54.645Z,46.11
2019-06-10T08:05:25.140Z,46.07
2019-06-10T08:07:55.686Z,46.08
2019-06-10T08:10:26.343Z,46.14
2019-06-10T08:12:56.849Z,46.52
2019-06-10T08:15:27.469Z,46.89
2019-06-10T08:17:57.957Z,46.89
2019-06-10T08:20:47.724Z,47.37
2019-06-10T08:23:20.017Z,46.03
2019-06-10T08:25:56.594Z,45.93
2019-06-10T08:28:23.285Z,45.79
2019-06-10T08:30:53.942Z,45.09
2019-06-10T08:33:24.508Z,44.81
2019-06-10T08:36:00.244Z,45.25
2019-06-10T08:38:27.439Z,45.88
2019-06-10T08:40:57.983Z,44.61
2019-06-10T08:43:28.670Z,44.83
2019-06-10T08:45:59.242Z,44.66
2019-06-10T08:48:29.751Z,44.00
2019-06-10T08:51:00.356Z,44.07
2019-06-10T08:53:33.072Z,45.73
2019-06-10T08:56:03.267Z,45.32
2019-06-10T08:58:33.875Z,44.90
2019-06-10T09:01:04.830Z,44.69
2019-06-10T09:03:35.381Z,44.78
2019-06-10T09:06:06.057Z,44.10
2019-06-10T09:08:39.543Z,44.22
2019-06-10T09:11:08.821Z,44.03
2019-06-10T09:13:40.752Z,44.10
2019-06-10T09:16:18.907Z,44.55
2019-06-10T09:18:47.481Z,44.43
2019-06-10T09:21:16.253Z,43.81
2019-06-10T09:23:51.522Z,43.19
2019-06-10T09:26:19.214Z,42.81
2019-06-10T09:28:53.788Z,43.38
2019-06-10T09:31:23.863Z,45.89
2019-06-10T09:33:56.976Z,44.52
2019-06-10T09:36:27.046Z,43.57
2019-06-10T09:38:57.580Z,44.52
2019-06-10T09:41:39.461Z,45.20
2019-06-10T09:44:00.311Z,47.30
2019-06-10T09:46:33.256Z,47.05
2019-06-10T09:49:05.650Z,47.40
2019-06-10T09:51:36.270Z,49.70
2019-06-10T09:54:07.116Z,51.30
2019-06-10T09:56:37.687Z,54.11
2019-06-10T09:59:12.537Z,53.20
2019-06-10T10:01:47.223Z,52.48
2019-06-10T10:04:15.517Z,50.26
2019-06-10T10:06:48.955Z,46.86
2019-06-10T10:09:18.678Z,44.55
2019-06-10T10:11:51.331Z,45.25
2019-06-10T10:14:23.100Z,46.90
2019-06-10T10:16:59.180Z,44.96
2019-06-10T10:19:26.752Z,45.39
2019-06-10T10:21:58.562Z,43.39
2019-06-10T10:24:29.397Z,41.55
2019-06-10T10:27:02.671Z,41.55
2019-06-10T10:29:32.878Z,40.33
2019-06-10T10:32:03.820Z,38.35
2019-06-10T10:34:34.315Z,39.49
2019-06-10T10:37:04.833Z,40.76
2019-06-10T10:39:35.420Z,40.58
2019-06-10T10:42:06.068Z,40.03
2019-06-10T10:44:36.648Z,40.37
2019-06-10T10:47:07.194Z,38.98
2019-06-10T10:49:37.672Z,37.93
2019-06-10T10:52:08.200Z,39.02
2019-06-10T10:54:38.664Z,38.14
2019-06-10T10:57:09.185Z,38.66
2019-06-10T10:59:39.666Z,39.03
2019-06-10T11:02:12.577Z,38.23
2019-06-10T11:04:46.605Z,37.06
2019-06-10T11:07:18.400Z,36.92
2019-06-10T11:09:50.330Z,36.17
2019-06-10T11:12:24.321Z,37.12
2019-06-10T11:15:00.442Z,35.01
2019-06-10T11:17:27.617Z,35.02
2019-06-10T11:19:58.219Z,35.50
2019-06-10T11:22:28.713Z,34.11
2019-06-10T11:24:59.190Z,34.09
2019-06-10T11:27:30.846Z,35.25
2019-06-10T11:30:02.757Z,34.83
2019-06-10T11:32:33.274Z,34.08
2019-06-10T11:35:04.208Z,34.14
2019-06-10T11:37:34.685Z,35.49
2019-06-10T11:40:05.844Z,33.68
2019-06-10T11:42:36.564Z,33.99
2019-06-10T11:45:08.295Z,34.64
2019-06-10T11:47:38.773Z,34.51
2019-06-10T11:50:12.145Z,34.30
2019-06-10T11:52:43.291Z,34.03
2019-06-10T11:55:18.997Z,33.67
2019-06-10T11:57:47.790Z,33.67
2019-06-10T12:00:18.751Z,33.67
2019-06-10T12:02:50.926Z,34.61
2019-06-10T12:05:23.545Z,37.53
2019-06-10T12:07:57.603Z,38.81
2019-06-10T12:10:26.865Z,41.48
2019-06-10T12:13:00.850Z,42.66
2019-06-10T12:15:34.767Z,43.29
2019-06-10T12:18:08.266Z,43.09
2019-06-10T12:20:34.279Z,43.75
2019-06-10T12:23:04.953Z,43.44
2019-06-10T12:25:39.514Z,44.31
2019-06-10T12:28:08.109Z,44.94
2019-06-10T12:30:42.199Z,49.89
2019-06-10T12:33:20.009Z,53.08
2019-06-10T12:35:44.485Z,56.31
2019-06-10T12:38:15.113Z,53.39
2019-06-10T12:40:45.620Z,53.39
2019-06-10T12:43:16.145Z,53.76
2019-06-10T12:45:46.619Z,55.14
2019-06-10T12:48:17.148Z,54.16
2019-06-10T12:50:47.904Z,55.11
2019-06-10T12:53:18.493Z,54.50
2019-06-10T12:55:48.977Z,54.35
2019-06-10T12:58:19.617Z,55.10
2019-06-10T13:00:50.294Z,54.86
2019-06-10T13:03:23.791Z,53.80
2019-06-10T13:05:57.666Z,53.20
2019-06-10T13:08:33.152Z,53.77
2019-06-10T13:11:04.119Z,54.17
2019-06-10T13:13:34.717Z,54.32
2019-06-10T13:16:08.271Z,53.35
2019-06-10T13:18:37.771Z,53.07
2019-06-10T13:21:13.350Z,52.47
2019-06-10T13:23:42.905Z,51.16
2019-06-10T13:26:16.490Z,49.80
2019-06-10T13:28:45.346Z,50.30
2019-06-10T13:31:15.858Z,48.28
2019-06-10T13:33:46.423Z,47.23
2019-06-10T13:36:17.138Z,46.90
2019-06-10T13:38:47.683Z,45.72
2019-06-10T13:41:18.495Z,46.43
2019-06-10T13:43:49.008Z,47.50
2019-06-10T13:46:19.501Z,47.96
2019-06-10T13:48:52.178Z,48.23
2019-06-10T13:51:22.303Z,45.58
2019-06-10T13:53:53.705Z,45.58
2019-06-10T13:56:43.260Z,44.87
2019-06-10T13:58:56.492Z,44.69
2019-06-10T14:01:27.320Z,45.08
2019-06-10T14:03:57.820Z,44.00
2019-06-10T14:06:45.480Z,44.00
2019-06-10T14:09:01.647Z,43.04
2019-06-10T14:11:33.976Z,43.76
2019-06-10T14:14:05.810Z,44.93
2019-06-10T14:16:36.437Z,43.92
2019-06-10T14:19:09.170Z,43.46
2019-06-10T14:21:39.273Z,42.88
2019-06-10T14:24:10.980Z,43.38
2019-06-10T14:26:45.320Z,43.76
2019-06-10T14:29:16.157Z,44.23
2019-06-10T14:31:47.871Z,44.10
2019-06-10T14:34:18.976Z,43.72
2019-06-10T14:36:49.500Z,42.13
2019-06-10T14:39:22.125Z,42.07
2019-06-10T14:41:52.425Z,43.15
2019-06-10T14:44:23.451Z,42.88
2019-06-10T14:46:54.153Z,42.73
2019-06-10T14:49:24.654Z,42.25
2019-06-10T14:51:55.112Z,42.53
2019-06-10T14:54:25.716Z,42.36
2019-06-10T14:56:57.327Z,41.67
2019-06-10T14:59:28.048Z,42.87
2019-06-10T15:01:58.510Z,42.07
2019-06-10T15:04:29.112Z,42.30
2019-06-10T15:06:59.578Z,43.71
2019-06-10T15:09:30.094Z,42.68
2019-06-10T15:12:02.685Z,42.66
2019-06-10T15:14:32.748Z,42.25
2019-06-10T15:17:03.273Z,42.57
2019-06-10T15:19:33.720Z,43.30
2019-06-10T15:22:04.289Z,43.30
2019-06-10T15:24:34.796Z,44.44
2019-06-10T15:27:13.034Z,44.44
2019-06-10T15:29:37.591Z,45.10
2019-06-10T15:32:17.104Z,44.28
2019-06-10T15:34:40.238Z,44.12
2019-06-10T15:37:11.768Z,44.89
2019-06-10T15:39:42.913Z,44.28
2019-06-10T15:42:13.564Z,44.28
2019-06-10T15:44:52.049Z,44.34
2019-06-10T15:47:19.456Z,44.34
2019-06-10T15:49:48.505Z,44.01
2019-06-10T15:52:21.935Z,44.40
2019-06-10T15:54:52.584Z,44.46
2019-06-10T15:57:38.899Z,45.44
2019-06-10T15:59:58.616Z,45.44
2019-06-10T16:02:29.131Z,45.50
2019-06-10T16:04:59.640Z,45.66
2019-06-10T16:07:32.484Z,44.90
2019-06-10T16:10:02.852Z,44.34
2019-06-10T16:12:33.468Z,44.34
2019-06-10T16:15:04.051Z,45.26
2019-06-10T16:17:34.528Z,44.96
2019-06-10T16:20:05.568Z,45.50
2019-06-10T16:22:36.064Z,45.51
2019-06-10T16:25:07.027Z,44.70
2019-06-10T16:27:47.407Z,46.28
2019-06-10T16:30:13.090Z,46.28
2019-06-10T16:32:46.408Z,46.75
2019-06-10T16:35:16.788Z,47.29
2019-06-10T16:37:47.316Z,45.47
2019-06-10T16:40:19.186Z,45.47
2019-06-10T16:42:49.683Z,46.70
2019-06-10T16:45:26.930Z,46.23
2019-06-10T16:47:53.326Z,46.07
2019-06-10T16:50:26.946Z,46.79
2019-06-10T16:52:56.120Z,46.75
2019-06-10T16:55:27.271Z,47.34
2019-06-10T16:57:59.569Z,46.76
2019-06-10T17:00:31.493Z,46.59
2019-06-10T17:03:02.498Z,46.94
2019-06-10T17:05:33.206Z,47.24
2019-06-10T17:08:04.364Z,47.32
2019-06-10T17:10:34.868Z,47.59
2019-06-10T17:13:07.525Z,48.15
2019-06-10T17:15:38.132Z,48.56
2019-06-10T17:18:08.799Z,48.87
2019-06-10T17:20:39.289Z,48.94
2019-06-10T17:23:28.006Z,49.75
2019-06-10T17:25:58.310Z,49.80
2019-06-10T17:28:33.894Z,50.68
2019-06-10T17:31:03.479Z,50.95
2019-06-10T17:33:35.629Z,51.42
2019-06-10T17:36:05.676Z,51.85
2019-06-10T17:38:36.139Z,52.34
2019-06-10T17:41:06.631Z,53.04
2019-06-10T17:43:37.115Z,53.04
2019-06-10T17:46:07.571Z,53.20
2019-06-10T17:48:38.082Z,53.01
2019-06-10T17:51:08.580Z,52.68
2019-06-10T17:53:39.069Z,52.83
2019-06-10T17:56:09.574Z,53.45
2019-06-10T17:58:51.602Z,54.04
2019-06-10T18:01:12.952Z,54.18
2019-06-10T18:03:43.549Z,54.83
2019-06-10T18:06:14.160Z,54.98
2019-06-10T18:08:44.615Z,54.79
2019-06-10T18:11:15.067Z,54.61
2019-06-10T18:13:45.569Z,54.60
2019-06-10T18:16:16.029Z,55.01
2019-06-10T18:18:46.533Z,55.25
2019-06-10T18:21:16.987Z,55.54
2019-06-10T18:23:47.472Z,55.73
2019-06-10T18:26:17.928Z,56.29
2019-06-10T18:29:08.155Z,56.15
2019-06-10T18:31:23.124Z,56.09
2019-06-10T18:33:53.155Z,56.42
2019-06-10T18:36:24.459Z,56.29
2019-06-10T18:38:55.113Z,56.39
2019-06-10T18:41:25.602Z,56.13
2019-06-10T18:43:56.059Z,55.78
2019-06-10T18:46:27.951Z,55.62
2019-06-10T18:48:58.512Z,55.53
2019-06-10T18:51:31.988Z,55.73
2019-06-10T18:54:02.407Z,55.75
2019-06-10T18:56:35.309Z,55.70
2019-06-10T18:59:16.460Z,55.54
2019-06-10T19:01:38.690Z,55.20
2019-06-10T19:04:09.290Z,55.34
2019-06-10T19:06:39.924Z,54.92
2019-06-10T19:09:12.794Z,55.39
2019-06-10T19:11:43.496Z,55.82
2019-06-10T19:14:14.040Z,56.04
2019-06-10T19:16:44.500Z,55.32
2019-06-10T19:19:14.970Z,55.01
2019-06-10T19:22:01.501Z,54.76
2019-06-10T19:24:17.625Z,55.36
2019-06-10T19:26:48.096Z,55.35
2019-06-10T19:29:30.747Z,55.06
2019-06-10T19:31:52.648Z,54.83
2019-06-10T19:34:22.907Z,54.99
2019-06-10T19:36:53.393Z,54.95
2019-06-10T19:39:23.851Z,55.11
2019-06-10T19:41:54.357Z,55.36
2019-06-10T19:44:24.815Z,55.24
2019-06-10T19:46:55.280Z,55.37
2019-06-10T19:49:25.760Z,55.94
2019-06-10T19:51:56.212Z,56.32
2019-06-10T19:54:26.704Z,56.56
2019-06-10T19:56:57.164Z,56.98
2019-06-10T19:59:27.685Z,57.24
2019-06-10T20:01:58.155Z,58.58
2019-06-10T20:04:28.647Z,60.28
2019-06-10T20:06:59.209Z,59.67
2019-06-10T20:09:29.698Z,60.91
2019-06-10T20:12:02.232Z,61.07
2019-06-10T20:14:32.375Z,60.93
2019-06-10T20:17:03.295Z,61.05
2019-06-10T20:19:33.974Z,61.24
2019-06-10T20:22:04.530Z,61.24
2019-06-10T20:24:36.316Z,61.45
2019-06-10T20:27:06.788Z,61.80
2019-06-10T20:29:37.849Z,61.75
2019-06-10T20:32:08.322Z,62.25
2019-06-10T20:34:39.267Z,62.29
2019-06-10T20:37:09.814Z,62.39
2019-06-10T20:39:42.721Z,62.60
2019-06-10T20:42:12.914Z,62.42
2019-06-10T20:44:45.910Z,62.65
2019-06-10T20:47:15.700Z,62.61
2019-06-10T20:49:49.499Z,62.57
2019-06-10T20:52:18.357Z,62.99
2019-06-10T20:54:50.063Z,62.98
2019-06-10T20:57:22.647Z,63.15
2019-06-10T20:59:52.752Z,63.33
2019-06-10T21:02:26.420Z,64.23
2019-06-10T21:04:58.321Z,64.50
2019-06-10T21:07:29.104Z,64.36
2019-06-10T21:10:02.766Z,64.27
2019-06-10T21:12:33.480Z,65.11
2019-06-10T21:15:04.049Z,65.45
2019-06-10T21:17:34.538Z,65.25
2019-06-10T21:20:05.469Z,66.32
2019-06-10T21:22:35.896Z,66.90
2019-06-10T21:25:06.601Z,66.28
2019-06-10T21:27:37.106Z,66.72
2019-06-10T21:30:11.676Z,66.16
2019-06-10T21:32:41.716Z,65.99
2019-06-10T21:35:12.143Z,65.99
2019-06-10T21:37:45.223Z,64.17
2019-06-10T21:40:15.184Z,63.82
2019-06-10T21:42:45.854Z,63.30
2019-06-10T21:45:18.037Z,62.97
2019-06-10T21:47:48.592Z,62.95
2019-06-10T21:50:19.325Z,63.13
2019-06-10T21:52:51.099Z,63.50
2019-06-10T21:55:22.540Z,64.05
2019-06-10T21:57:55.132Z,64.02
2019-06-10T22:00:32.152Z,64.61
2019-06-10T22:03:02.582Z,65.30
2019-06-10T22:05:33.210Z,65.57
2019-06-10T22:08:03.765Z,65.93
2019-06-10T22:10:34.209Z,66.03
2019-06-10T22:13:04.788Z,66.89
2019-06-10T22:15:35.223Z,66.92
2019-06-10T22:18:05.901Z,66.77
2019-06-10T22:20:36.462Z,66.73
2019-06-10T22:23:06.930Z,66.77
2019-06-10T22:25:37.439Z,66.83
2019-06-10T22:28:08.074Z,67.04
2019-06-10T22:30:38.503Z,67.39
2019-06-10T22:33:08.944Z,67.51
2019-06-10T22:35:39.384Z,69.10
2019-06-10T22:38:09.863Z,69.62
2019-06-10T22:40:42.462Z,69.64
2019-06-10T22:43:13.037Z,69.47
2019-06-10T22:45:43.562Z,69.14
2019-06-10T22:48:14.049Z,69.36
2019-06-10T22:50:44.534Z,68.46
2019-06-10T22:53:14.961Z,68.49
2019-06-10T22:55:45.406Z,68.67
2019-06-10T22:58:15.926Z,68.92
2019-06-10T23:00:46.806Z,68.95
2019-06-10T23:03:18.509Z,68.54
2019-06-10T23:05:50.285Z,68.23
2019-06-10T23:08:22.832Z,68.03
2019-06-10T23:10:55.022Z,67.21
2019-06-10T23:13:25.199Z,67.14
2019-06-10T23:15:57.933Z,66.29
2019-06-10T23:18:27.859Z,65.84
2019-06-10T23:20:59.680Z,65.69
2019-06-10T23:23:32.615Z,66.04
2019-06-10T23:26:03.142Z,66.34
2019-06-10T23:28:33.639Z,65.37
2019-06-10T23:31:05.339Z,64.91
2019-06-10T23:33:36.051Z,64.11
2019-06-10T23:36:06.540Z,63.82
2019-06-10T23:38:36.993Z,64.48
2019-06-10T23:41:07.471Z,64.81
2019-06-10T23:43:37.950Z,64.11
2019-06-10T23:46:08.410Z,63.24
2019-06-10T23:48:38.898Z,62.69
2019-06-10T23:51:09.388Z,62.09
2019-06-10T23:53:39.876Z,62.84
2019-06-10T23:56:12.692Z,62.51
2019-06-10T23:58:43.298Z,62.62
